createdAt,value
2019-04-05T00:01:12.998Z,99.90
2019-04-05T00:04:01.239Z,99.90
2019-04-05T00:06:49.123Z,99.90
2019-04-05T00:09:36.518Z,99.90
2019-04-05T00:12:24.251Z,99.90
2019-04-05T00:15:15.494Z,99.90
2019-04-05T00:18:01.305Z,99.90
2019-04-05T00:20:49.292Z,99.90
2019-04-05T00:23:37.215Z,99.90
2019-04-05T00:26:25.329Z,99.90
2019-04-05T00:29:13.007Z,99.90
2019-04-05T00:32:00.766Z,99.90
2019-04-05T00:34:48.506Z,99.90
2019-04-05T00:37:36.496Z,99.90
2019-04-05T00:40:24.419Z,99.90
2019-04-05T00:43:11.921Z,99.90
2019-04-05T00:46:00.006Z,99.90
2019-04-05T00:48:47.590Z,99.90
2019-04-05T00:51:35.388Z,99.90
2019-04-05T00:54:23.176Z,99.90
2019-04-05T00:57:10.888Z,99.90
2019-04-05T00:59:58.333Z,99.90
2019-04-05T01:02:45.876Z,99.90
2019-04-05T01:05:33.839Z,99.90
2019-04-05T01:08:21.556Z,99.90
2019-04-05T01:11:09.620Z,99.90
2019-04-05T01:13:58.404Z,99.90
2019-04-05T01:16:46.195Z,99.90
2019-04-05T01:19:35.439Z,99.90
2019-04-05T01:22:28.060Z,99.90
2019-04-05T01:25:16.305Z,99.90
2019-04-05T01:28:03.960Z,99.90
2019-04-05T01:30:51.773Z,99.90
2019-04-05T01:33:39.293Z,99.90
2019-04-05T01:36:27.101Z,99.90
2019-04-05T01:39:14.754Z,99.90
2019-04-05T01:42:02.521Z,99.90
2019-04-05T01:44:51.932Z,99.90
2019-04-05T01:47:40.412Z,99.90
2019-04-05T01:50:29.216Z,99.90
2019-04-05T01:53:17.608Z,99.90
2019-04-05T01:56:05.752Z,99.90
2019-04-05T01:58:53.343Z,99.90
2019-04-05T02:01:40.942Z,99.90
2019-04-05T02:04:29.076Z,99.90
2019-04-05T02:07:17.170Z,99.90
2019-04-05T02:10:10.385Z,99.90
2019-04-05T02:12:58.462Z,99.90
2019-04-05T02:15:46.442Z,99.90
2019-04-05T02:18:34.296Z,99.90
2019-04-05T02:21:21.994Z,99.90
2019-04-05T02:24:10.356Z,99.90
2019-04-05T02:26:58.156Z,99.90
2019-04-05T02:29:46.127Z,99.90
2019-04-05T02:32:34.276Z,99.90
2019-04-05T02:35:22.332Z,99.90
2019-04-05T02:38:10.220Z,99.90
2019-04-05T02:41:00.932Z,99.90
2019-04-05T02:43:49.274Z,99.90
2019-04-05T02:46:38.181Z,99.90
2019-04-05T02:49:27.961Z,99.90
2019-04-05T02:52:19.001Z,99.90
2019-04-05T02:55:07.390Z,99.90
2019-04-05T02:57:56.770Z,99.90
2019-04-05T03:00:45.170Z,99.90
2019-04-05T03:03:33.274Z,99.90
2019-04-05T03:06:21.129Z,99.90
2019-04-05T03:09:09.561Z,99.90
2019-04-05T03:11:57.982Z,99.90
2019-04-05T03:14:46.138Z,99.90
2019-04-05T03:17:37.340Z,99.90
2019-04-05T03:20:25.069Z,99.90
2019-04-05T03:23:12.598Z,99.90
2019-04-05T03:26:03.372Z,99.90
2019-04-05T03:28:54.168Z,99.90
2019-04-05T03:31:42.086Z,99.90
2019-04-05T03:34:29.883Z,99.90
2019-04-05T03:37:18.841Z,99.90
2019-04-05T03:40:07.079Z,99.90
2019-04-05T03:42:55.136Z,99.90
2019-04-05T03:45:43.045Z,99.90
2019-04-05T03:48:31.016Z,99.90
2019-04-05T03:51:18.917Z,99.90
2019-04-05T03:54:07.015Z,99.90
2019-04-05T03:56:54.750Z,99.90
2019-04-05T03:59:42.573Z,99.90
2019-04-05T04:02:30.388Z,99.90
2019-04-05T04:05:18.369Z,99.90
2019-04-05T04:08:05.802Z,99.90
2019-04-05T04:10:54.371Z,99.90
2019-04-05T04:13:42.433Z,99.90
2019-04-05T04:16:30.332Z,99.90
2019-04-05T04:19:18.258Z,99.90
2019-04-05T04:22:18.491Z,99.90
2019-04-05T04:25:06.349Z,99.90
2019-04-05T04:27:54.101Z,99.90
2019-04-05T04:30:41.816Z,99.90
2019-04-05T04:33:29.966Z,99.90
2019-04-05T04:36:17.910Z,99.90
2019-04-05T04:39:06.812Z,99.90
2019-04-05T04:41:54.840Z,99.90
2019-04-05T04:44:43.209Z,99.90
2019-04-05T04:47:31.177Z,99.90
2019-04-05T04:50:19.776Z,99.90
2019-04-05T04:53:08.489Z,99.90
2019-04-05T04:55:56.988Z,99.90
2019-04-05T04:58:46.393Z,99.90
2019-04-05T05:01:34.463Z,99.90
2019-04-05T05:04:22.083Z,99.90
2019-04-05T05:07:09.585Z,99.90
2019-04-05T05:09:57.733Z,99.90
2019-04-05T05:12:45.429Z,99.90
2019-04-05T05:15:33.075Z,99.90
2019-04-05T05:18:20.806Z,99.90
2019-04-05T05:21:08.881Z,99.90
2019-04-05T05:23:56.677Z,99.90
2019-04-05T05:26:44.415Z,99.90
2019-04-05T05:29:31.761Z,99.90
2019-04-05T05:32:19.678Z,99.90
2019-04-05T05:35:09.465Z,99.90
2019-04-05T05:37:57.714Z,99.90
2019-04-05T05:40:45.867Z,99.90
2019-04-05T05:43:33.971Z,99.90
2019-04-05T05:46:22.320Z,99.90
2019-04-05T05:49:09.870Z,99.90
2019-04-05T05:51:57.640Z,99.90
2019-04-05T05:54:45.408Z,99.90
2019-04-05T05:57:33.141Z,99.90
2019-04-05T06:00:23.040Z,99.90
2019-04-05T06:03:11.820Z,99.90
2019-04-05T06:08:49.440Z,99.90
2019-04-05T06:11:36.872Z,99.90
2019-04-05T06:14:24.172Z,99.90
2019-04-05T06:17:11.789Z,99.90
2019-04-05T06:19:59.276Z,99.90
2019-04-05T06:22:47.676Z,99.90
2019-04-05T06:25:35.510Z,99.90
2019-04-05T06:28:23.554Z,99.90
2019-04-05T06:31:11.846Z,99.90
2019-04-05T06:33:59.478Z,99.90
2019-04-05T06:36:47.324Z,99.90
2019-04-05T06:39:35.092Z,99.90
2019-04-05T06:42:22.692Z,99.90
2019-04-05T06:45:10.398Z,99.90
2019-04-05T06:47:58.233Z,99.90
2019-04-05T06:50:47.464Z,99.90
2019-04-05T06:53:35.465Z,99.90
2019-04-05T06:56:23.437Z,99.80
2019-04-05T06:59:11.391Z,99.70
2019-04-05T07:01:59.116Z,99.90
2019-04-05T07:04:47.007Z,99.90
2019-04-05T07:07:35.299Z,99.70
2019-04-05T07:10:23.280Z,99.60
2019-04-05T07:13:11.241Z,99.30
2019-04-05T07:15:59.425Z,99.10
2019-04-05T07:18:46.492Z,99.30
2019-04-05T07:21:34.252Z,99.30
2019-04-05T07:24:22.266Z,99.10
2019-04-05T07:27:09.992Z,98.50
2019-04-05T07:29:57.440Z,97.90
2019-04-05T07:32:45.762Z,97.70
2019-04-05T07:35:34.235Z,97.00
2019-04-05T07:38:22.145Z,96.90
2019-04-05T07:41:09.977Z,96.60
2019-04-05T07:43:58.130Z,96.70
2019-04-05T07:46:46.691Z,96.70
2019-04-05T07:49:34.668Z,96.20
2019-04-05T07:52:22.720Z,95.80
2019-04-05T07:55:10.624Z,96.20
2019-04-05T07:57:58.137Z,96.00
2019-04-05T08:00:51.395Z,95.60
2019-04-05T08:03:39.333Z,95.00
2019-04-05T08:06:27.765Z,95.20
2019-04-05T08:09:16.919Z,95.20
2019-04-05T08:12:04.901Z,95.20
2019-04-05T08:14:53.365Z,95.40
2019-04-05T08:17:41.053Z,95.40
2019-04-05T08:20:28.744Z,95.50
2019-04-05T08:23:16.185Z,95.10
2019-04-05T08:26:04.110Z,95.70
2019-04-05T08:28:51.629Z,95.80
2019-04-05T08:31:39.075Z,95.80
2019-04-05T08:34:26.728Z,95.00
2019-04-05T08:37:14.752Z,94.90
2019-04-05T08:40:02.426Z,95.30
2019-04-05T08:42:49.762Z,95.20
2019-04-05T08:45:37.146Z,95.50
2019-04-05T08:48:24.659Z,95.90
2019-04-05T08:51:12.614Z,95.30
2019-04-05T08:54:00.405Z,95.30
2019-04-05T08:56:48.004Z,95.20
2019-04-05T08:59:35.788Z,94.50
2019-04-05T09:02:23.818Z,94.70
2019-04-05T09:05:11.254Z,93.50
2019-04-05T09:07:58.716Z,93.80
2019-04-05T09:10:46.280Z,92.80
2019-04-05T09:13:34.226Z,93.00
2019-04-05T09:16:21.594Z,93.10
2019-04-05T09:19:17.941Z,92.00
2019-04-05T09:21:58.626Z,91.60
2019-04-05T09:24:46.473Z,91.60
2019-04-05T09:27:34.241Z,91.90
2019-04-05T09:30:22.108Z,92.10
2019-04-05T09:33:09.788Z,91.50
2019-04-05T09:35:57.775Z,91.00
2019-04-05T09:38:45.198Z,91.10
2019-04-05T09:41:32.873Z,91.30
2019-04-05T09:44:23.610Z,90.70
2019-04-05T09:47:09.920Z,90.70
2019-04-05T09:49:57.952Z,90.10
2019-04-05T09:52:46.096Z,90.80
2019-04-05T09:55:33.770Z,90.60
2019-04-05T09:58:21.648Z,89.60
2019-04-05T10:01:09.327Z,89.10
2019-04-05T10:03:57.437Z,87.20
2019-04-05T10:06:45.117Z,86.40
2019-04-05T10:09:33.052Z,88.40
2019-04-05T10:12:20.528Z,85.70
2019-04-05T10:15:08.262Z,85.40
2019-04-05T10:17:55.739Z,85.70
2019-04-05T10:20:43.833Z,86.30
2019-04-05T10:23:31.673Z,86.80
2019-04-05T10:26:19.077Z,89.80
2019-04-05T10:29:06.681Z,85.30
2019-04-05T10:31:54.458Z,85.50
2019-04-05T10:34:42.382Z,84.90
2019-04-05T10:37:30.005Z,84.60
2019-04-05T10:40:17.818Z,84.40
2019-04-05T10:43:05.787Z,83.70
2019-04-05T10:45:53.598Z,83.70
2019-04-05T10:48:41.189Z,83.10
2019-04-05T10:51:29.296Z,83.40
2019-04-05T10:54:16.799Z,84.30
2019-04-05T10:57:04.822Z,82.70
2019-04-05T10:59:52.614Z,83.40
2019-04-05T11:02:40.479Z,82.90
2019-04-05T11:05:28.376Z,82.80
2019-04-05T11:08:15.798Z,82.60
2019-04-05T11:11:04.847Z,83.50
2019-04-05T11:13:52.479Z,84.00
2019-04-05T11:16:40.148Z,84.10
2019-04-05T11:19:28.017Z,84.70
2019-04-05T11:22:15.726Z,84.50
2019-04-05T11:25:04.564Z,84.90
2019-04-05T11:27:52.502Z,85.00
2019-04-05T11:30:45.068Z,84.80
2019-04-05T11:33:32.545Z,87.00
2019-04-05T11:36:20.732Z,86.00
2019-04-05T11:39:08.566Z,84.70
2019-04-05T11:41:58.423Z,85.20
2019-04-05T11:44:48.765Z,84.60
2019-04-05T11:47:38.772Z,83.80
2019-04-05T11:50:34.330Z,84.40
2019-04-05T11:53:16.196Z,86.10
2019-04-05T11:56:14.604Z,85.00
2019-04-05T11:58:53.513Z,84.50
2019-04-05T12:01:46.615Z,84.90
2019-04-05T12:04:34.228Z,84.30
2019-04-05T12:07:26.287Z,83.80
2019-04-05T12:10:11.353Z,83.50
2019-04-05T12:13:00.373Z,83.90
2019-04-05T12:15:48.812Z,84.10
2019-04-05T12:18:36.951Z,83.80
2019-04-05T12:21:24.570Z,83.90
2019-04-05T12:24:12.347Z,82.70
2019-04-05T12:27:00.596Z,83.20
2019-04-05T12:29:50.342Z,82.70
2019-04-05T12:32:41.275Z,83.10
2019-04-05T12:35:27.473Z,83.40
2019-04-05T12:38:31.508Z,83.20
2019-04-05T12:41:19.773Z,83.00
2019-04-05T12:44:07.885Z,83.20
2019-04-05T12:46:55.676Z,82.40
2019-04-05T12:49:45.477Z,81.70
2019-04-05T12:52:33.157Z,81.40
2019-04-05T12:55:23.847Z,81.70
2019-04-05T12:58:10.403Z,82.50
2019-04-05T13:00:57.616Z,82.70
2019-04-05T13:03:45.293Z,82.20
2019-04-05T13:06:33.077Z,81.90
2019-04-05T13:09:21.455Z,82.10
2019-04-05T13:12:09.929Z,81.90
2019-04-05T13:15:11.309Z,81.40
2019-04-05T13:17:47.315Z,80.60
2019-04-05T13:20:35.732Z,80.60
2019-04-05T13:23:23.492Z,79.70
2019-04-05T13:26:12.536Z,80.00
2019-04-05T13:29:00.513Z,81.40
2019-04-05T13:31:49.216Z,80.80
2019-04-05T13:34:37.059Z,79.40
2019-04-05T13:37:24.692Z,80.40
2019-04-05T13:40:12.484Z,80.20
2019-04-05T13:43:02.043Z,80.60
2019-04-05T13:45:50.345Z,80.80
2019-04-05T13:48:40.228Z,80.70
2019-04-05T13:51:30.422Z,80.60
2019-04-05T13:54:16.578Z,78.40
2019-04-05T13:57:04.601Z,77.60
2019-04-05T13:59:52.649Z,78.40
2019-04-05T14:02:40.634Z,78.00
2019-04-05T14:05:28.322Z,79.80
2019-04-05T14:08:16.317Z,79.90
2019-04-05T14:11:04.245Z,78.40
2019-04-05T14:13:52.165Z,78.70
2019-04-05T14:16:42.589Z,80.00
2019-04-05T14:19:29.595Z,79.40
2019-04-05T14:22:17.232Z,79.20
2019-04-05T14:25:05.992Z,79.70
2019-04-05T14:27:53.875Z,80.50
2019-04-05T14:30:41.848Z,79.50
2019-04-05T14:33:29.524Z,81.40
2019-04-05T14:36:17.316Z,80.10
2019-04-05T14:39:08.845Z,79.90
2019-04-05T14:42:08.823Z,79.90
2019-04-05T14:44:45.946Z,79.30
2019-04-05T14:47:33.670Z,80.30
2019-04-05T14:50:21.229Z,79.00
2019-04-05T14:53:08.951Z,79.60
2019-04-05T14:55:59.047Z,79.00
2019-04-05T14:58:47.300Z,79.50
2019-04-05T15:01:35.209Z,79.00
2019-04-05T15:04:22.615Z,80.50
2019-04-05T15:07:10.358Z,80.00
2019-04-05T15:09:58.301Z,80.20
2019-04-05T15:12:46.251Z,80.40
2019-04-05T15:15:33.791Z,80.50
2019-04-05T15:18:24.234Z,81.00
2019-04-05T15:21:16.346Z,80.80
2019-04-05T15:24:04.437Z,81.30
2019-04-05T15:26:52.687Z,80.90
2019-04-05T15:29:40.625Z,80.50
2019-04-05T15:32:29.407Z,81.30
2019-04-05T15:35:17.415Z,81.10
2019-04-05T15:38:05.342Z,80.70
2019-04-05T15:40:52.972Z,80.20
2019-04-05T15:43:40.673Z,80.20
2019-04-05T15:46:28.157Z,81.40
2019-04-05T15:49:16.449Z,81.90
2019-04-05T15:52:04.493Z,81.40
2019-04-05T15:54:51.867Z,81.30
2019-04-05T15:57:39.592Z,81.60
2019-04-05T16:00:41.606Z,81.30
2019-04-05T16:03:31.961Z,82.60
2019-04-05T16:06:18.001Z,83.10
2019-04-05T16:09:09.948Z,83.50
2019-04-05T16:11:58.091Z,83.00
2019-04-05T16:14:46.170Z,83.40
2019-04-05T16:17:33.564Z,83.90
2019-04-05T16:20:21.493Z,84.30
2019-04-05T16:23:09.161Z,84.10
2019-04-05T16:25:56.709Z,84.10
2019-04-05T16:28:44.255Z,84.30
2019-04-05T16:31:32.428Z,85.40
2019-04-05T16:34:20.482Z,85.80
2019-04-05T16:37:08.105Z,85.80
2019-04-05T16:39:55.759Z,85.80
2019-04-05T16:42:43.093Z,85.90
2019-04-05T16:45:31.038Z,86.10
2019-04-05T16:48:19.034Z,86.50
2019-04-05T16:51:06.920Z,86.70
2019-04-05T16:54:01.419Z,86.90
2019-04-05T16:56:49.286Z,86.80
2019-04-05T16:59:36.944Z,87.20
2019-04-05T17:02:24.865Z,87.40
2019-04-05T17:05:13.097Z,87.90
2019-04-05T17:08:00.841Z,88.20
2019-04-05T17:10:48.497Z,88.90
2019-04-05T17:13:36.338Z,88.90
2019-04-05T17:16:23.853Z,89.90
2019-04-05T17:19:11.604Z,90.10
2019-04-05T17:21:59.459Z,90.10
2019-04-05T17:24:46.948Z,90.20
2019-04-05T17:27:35.757Z,90.10
2019-04-05T17:30:23.700Z,90.10
2019-04-05T17:33:11.933Z,90.30
2019-04-05T17:35:59.578Z,90.30
2019-04-05T17:38:47.253Z,90.50
2019-04-05T17:41:34.717Z,90.60
2019-04-05T17:44:23.072Z,90.50
2019-04-05T17:49:55.937Z,90.30
2019-04-05T17:52:43.703Z,90.50
2019-04-05T17:55:31.589Z,90.50
2019-04-05T17:58:19.626Z,90.60
2019-04-05T18:01:07.518Z,90.90
2019-04-05T18:03:55.385Z,90.60
2019-04-05T18:06:42.936Z,90.50
2019-04-05T18:09:31.286Z,90.90
2019-04-05T18:12:19.323Z,90.80
2019-04-05T18:15:07.291Z,90.90
2019-04-05T18:17:55.108Z,90.80
2019-04-05T18:20:43.401Z,91.20
2019-04-05T18:23:31.401Z,91.70
2019-04-05T18:26:19.598Z,92.00
2019-04-05T18:29:07.241Z,92.20
2019-04-05T18:31:55.092Z,92.50
2019-04-05T18:34:42.899Z,92.70
2019-04-05T18:37:30.845Z,92.90
2019-04-05T18:40:19.039Z,93.30
2019-04-05T18:43:06.865Z,93.40
2019-04-05T18:45:54.434Z,93.60
2019-04-05T18:48:42.191Z,93.70
2019-04-05T18:51:29.578Z,93.80
2019-04-05T18:54:17.591Z,93.90
2019-04-05T18:57:05.043Z,94.00
2019-04-05T18:59:53.144Z,94.00
2019-04-05T19:02:41.158Z,94.10
2019-04-05T19:05:28.969Z,94.20
2019-04-05T19:08:16.683Z,94.40
2019-04-05T19:11:04.036Z,94.50
2019-04-05T19:14:00.916Z,94.60
2019-04-05T19:16:41.841Z,94.70
2019-04-05T19:19:29.842Z,95.00
2019-04-05T19:22:17.508Z,95.20
2019-04-05T19:25:05.407Z,95.20
2019-04-05T19:27:53.403Z,95.20
2019-04-05T19:50:26.241Z,95.10
2019-04-05T19:53:14.075Z,95.00
2019-04-05T19:56:02.213Z,95.00
2019-04-05T19:58:50.161Z,95.00
2019-04-05T20:01:38.085Z,95.00
2019-04-05T20:04:25.798Z,95.10
2019-04-05T20:07:13.526Z,95.10
2019-04-05T20:10:01.125Z,95.30
2019-04-05T20:12:48.710Z,95.20
2019-04-05T20:15:36.846Z,95.20
2019-04-05T20:18:24.616Z,95.20
2019-04-05T20:21:12.840Z,95.30
2019-04-05T20:24:09.393Z,95.10
2019-04-05T20:26:50.584Z,95.50
2019-04-05T20:29:38.443Z,95.60
2019-04-05T20:32:26.408Z,95.80
2019-04-05T20:35:14.683Z,95.80
2019-04-05T20:38:02.582Z,95.70
2019-04-05T20:40:50.383Z,96.00
2019-04-05T20:43:38.949Z,95.90
2019-04-05T20:46:27.022Z,95.90
2019-04-05T20:49:15.638Z,95.80
2019-04-05T20:52:03.339Z,95.80
2019-04-05T20:54:51.969Z,95.80
2019-04-05T20:57:40.201Z,95.80
2019-04-05T21:00:28.612Z,95.80
2019-04-05T21:03:16.278Z,95.80
2019-04-05T21:06:04.675Z,95.90
2019-04-05T21:08:52.748Z,95.80
2019-04-05T21:11:41.018Z,95.80
2019-04-05T21:14:28.916Z,95.80
2019-04-05T21:17:16.429Z,95.90
2019-04-05T21:20:04.802Z,96.10
2019-04-05T21:22:52.254Z,96.20
2019-04-05T21:25:40.060Z,96.30
2019-04-05T21:28:28.401Z,96.20
2019-04-05T21:31:15.725Z,96.30
2019-04-05T21:34:03.061Z,96.40
2019-04-05T21:36:50.603Z,97.00
2019-04-05T21:39:38.331Z,96.50
2019-04-05T21:42:25.572Z,96.40
2019-04-05T21:45:13.250Z,96.30
2019-04-05T21:48:00.988Z,96.40
2019-04-05T21:50:48.648Z,96.40
2019-04-05T21:53:36.467Z,96.50
2019-04-05T21:56:23.781Z,96.80
2019-04-05T21:59:11.687Z,96.90
2019-04-05T22:01:59.650Z,96.90
2019-04-05T22:04:47.238Z,97.00
2019-04-05T22:07:34.981Z,97.00
2019-04-05T22:10:22.880Z,97.10
2019-04-05T22:13:10.408Z,97.20
2019-04-05T22:15:57.965Z,97.20
2019-04-05T22:18:45.921Z,97.50
2019-04-05T22:21:33.945Z,97.80
2019-04-05T22:24:21.747Z,98.10
2019-04-05T22:27:09.205Z,98.30
2019-04-05T22:29:57.418Z,98.40
2019-04-05T22:32:45.294Z,98.60
2019-04-05T22:35:33.042Z,98.50
2019-04-05T22:38:20.681Z,98.60
2019-04-05T22:41:08.189Z,98.60
2019-04-05T22:43:56.250Z,98.70
2019-04-05T22:46:44.247Z,98.70
2019-04-05T22:49:31.527Z,99.00
2019-04-05T22:52:19.434Z,99.10
2019-04-05T22:55:11.693Z,98.80
2019-04-05T22:57:56.769Z,98.90
2019-04-05T23:00:44.506Z,99.00
2019-04-05T23:03:32.517Z,99.40
2019-04-05T23:06:20.717Z,99.30
2019-04-05T23:09:08.487Z,99.50
2019-04-05T23:11:56.804Z,99.30
2019-04-05T23:14:44.436Z,99.20
2019-04-05T23:17:32.351Z,99.30
2019-04-05T23:20:20.275Z,99.30
2019-04-05T23:23:07.835Z,99.30
2019-04-05T23:25:55.500Z,99.30
2019-04-05T23:28:43.754Z,99.30
2019-04-05T23:31:31.656Z,99.60
2019-04-05T23:34:19.532Z,99.80
2019-04-05T23:37:07.120Z,99.80
2019-04-05T23:39:54.872Z,99.90
2019-04-05T23:42:42.825Z,99.90
2019-04-05T23:45:30.583Z,99.90
2019-04-05T23:48:18.472Z,99.90
2019-04-05T23:51:06.321Z,99.90
2019-04-05T23:53:54.168Z,99.90
2019-04-05T23:56:41.708Z,99.80
2019-04-05T23:59:29.900Z,99.70
